sensor_id;sensor_type;location;lat;lon;timestamp;temperature;humidity
17148;DHT22;8689;47.364;8.796;2024-02-15T00:00:46;5.00;99.90
17148;DHT22;8689;47.364;8.796;2024-02-15T00:03:33;4.90;99.90
17148;DHT22;8689;47.364;8.796;2024-02-15T00:06:14;4.80;99.90
17148;DHT22;8689;47.364;8.796;2024-02-15T00:08:42;4.60;99.90
17148;DHT22;8689;47.364;8.796;2024-02-15T00:11:13;4.50;99.90
17148;DHT22;8689;47.364;8.796;2024-02-15T00:13:40;4.40;99.90
17148;DHT22;8689;47.364;8.796;2024-02-15T00:16:13;4.30;99.90
17148;DHT22;8689;47.364;8.796;2024-02-15T00:18:42;4.30;99.90
17148;DHT22;8689;47.364;8.796;2024-02-15T00:23:45;4.60;99.90
17148;DHT22;8689;47.364;8.796;2024-02-15T00:26:13;4.70;99.90
17148;DHT22;8689;47.364;8.796;2024-02-15T00:29:13;4.80;99.90
17148;DHT22;8689;47.364;8.796;2024-02-15T00:31:54;4.90;99.90
17148;DHT22;8689;47.364;8.796;2024-02-15T00:34:25;5.00;99.90
17148;DHT22;8689;47.364;8.796;2024-02-15T00:36:52;5.00;99.90
17148;DHT22;8689;47.364;8.796;2024-02-15T00:39:19;5.00;99.90
17148;DHT22;8689;47.364;8.796;2024-02-15T00:41:47;5.00;99.90
17148;DHT22;8689;47.364;8.796;2024-02-15T00:44:24;5.00;99.90
17148;DHT22;8689;47.364;8.796;2024-02-15T00:46:57;4.90;99.90
17148;DHT22;8689;47.364;8.796;2024-02-15T00:49:25;4.90;99.90
17148;DHT22;8689;47.364;8.796;2024-02-15T00:51:53;4.90;99.90
17148;DHT22;8689;47.364;8.796;2024-02-15T00:54:26;4.90;99.90
17148;DHT22;8689;47.364;8.796;2024-02-15T00:56:54;5.00;99.90
17148;DHT22;8689;47.364;8.796;2024-02-15T00:59:21;5.00;99.90
17148;DHT22;8689;47.364;8.796;2024-02-15T01:01:48;5.00;99.90
17148;DHT22;8689;47.364;8.796;2024-02-15T01:04:15;5.00;99.90
17148;DHT22;8689;47.364;8.796;2024-02-15T01:06:45;4.90;99.90
17148;DHT22;8689;47.364;8.796;2024-02-15T01:09:16;4.80;99.90
17148;DHT22;8689;47.364;8.796;2024-02-15T01:11:51;4.60;99.90
17148;DHT22;8689;47.364;8.796;2024-02-15T01:14:21;4.60;99.90
17148;DHT22;8689;47.364;8.796;2024-02-15T01:16:53;4.60;99.90
17148;DHT22;8689;47.364;8.796;2024-02-15T01:19:21;4.60;99.90
17148;DHT22;8689;47.364;8.796;2024-02-15T01:21:58;4.60;99.90
17148;DHT22;8689;47.364;8.796;2024-02-15T01:24:26;4.60;99.90
17148;DHT22;8689;47.364;8.796;2024-02-15T01:27:22;4.50;99.90
17148;DHT22;8689;47.364;8.796;2024-02-15T01:29:49;4.40;99.90
17148;DHT22;8689;47.364;8.796;2024-02-15T01:32:17;4.30;99.90
17148;DHT22;8689;47.364;8.796;2024-02-15T01:34:46;4.40;99.90
17148;DHT22;8689;47.364;8.796;2024-02-15T01:37:16;4.50;99.90
17148;DHT22;8689;47.364;8.796;2024-02-15T01:40:00;4.50;99.90
17148;DHT22;8689;47.364;8.796;2024-02-15T01:42:29;4.60;99.90
17148;DHT22;8689;47.364;8.796;2024-02-15T01:45:12;4.70;99.90
17148;DHT22;8689;47.364;8.796;2024-02-15T01:47:43;4.70;99.90
17148;DHT22;8689;47.364;8.796;2024-02-15T01:50:12;4.70;99.90
17148;DHT22;8689;47.364;8.796;2024-02-15T01:52:44;4.70;99.90
17148;DHT22;8689;47.364;8.796;2024-02-15T01:55:14;4.60;99.90
17148;DHT22;8689;47.364;8.796;2024-02-15T01:57:44;4.60;99.90
17148;DHT22;8689;47.364;8.796;2024-02-15T02:00:17;4.60;99.90
17148;DHT22;8689;47.364;8.796;2024-02-15T02:05:43;4.50;99.90
17148;DHT22;8689;47.364;8.796;2024-02-15T02:08:12;4.50;99.90
17148;DHT22;8689;47.364;8.796;2024-02-15T02:11:24;4.50;99.90
17148;DHT22;8689;47.364;8.796;2024-02-15T02:14:19;4.50;99.90
17148;DHT22;8689;47.364;8.796;2024-02-15T02:16:49;4.50;99.90
17148;DHT22;8689;47.364;8.796;2024-02-15T02:49:57;4.30;99.90
17148;DHT22;8689;47.364;8.796;2024-02-15T03:03:32;4.30;99.90
17148;DHT22;8689;47.364;8.796;2024-02-15T03:53:40;3.90;99.90
17148;DHT22;8689;47.364;8.796;2024-02-15T03:56:09;3.80;99.90
17148;DHT22;8689;47.364;8.796;2024-02-15T03:58:40;3.80;99.90
17148;DHT22;8689;47.364;8.796;2024-02-15T04:05:27;3.80;99.90
17148;DHT22;8689;47.364;8.796;2024-02-15T04:08:50;3.80;99.90
17148;DHT22;8689;47.364;8.796;2024-02-15T04:11:44;3.70;99.90
17148;DHT22;8689;47.364;8.796;2024-02-15T04:14:55;3.70;99.90
17148;DHT22;8689;47.364;8.796;2024-02-15T04:17:42;3.80;99.90
17148;DHT22;8689;47.364;8.796;2024-02-15T04:20:35;3.70;99.90
17148;DHT22;8689;47.364;8.796;2024-02-15T04:23:27;3.80;99.90
17148;DHT22;8689;47.364;8.796;2024-02-15T04:26:05;3.70;99.90
17148;DHT22;8689;47.364;8.796;2024-02-15T04:28:55;3.70;99.90
17148;DHT22;8689;47.364;8.796;2024-02-15T04:32:12;3.60;99.90
17148;DHT22;8689;47.364;8.796;2024-02-15T04:34:56;3.60;99.90
17148;DHT22;8689;47.364;8.796;2024-02-15T04:37:25;3.50;99.90
17148;DHT22;8689;47.364;8.796;2024-02-15T04:39:54;3.40;99.90
17148;DHT22;8689;47.364;8.796;2024-02-15T04:42:48;3.30;99.90
17148;DHT22;8689;47.364;8.796;2024-02-15T05:25:55;3.00;99.90
17148;DHT22;8689;47.364;8.796;2024-02-15T05:28:51;3.00;99.90
17148;DHT22;8689;47.364;8.796;2024-02-15T05:34:54;3.00;99.90
17148;DHT22;8689;47.364;8.796;2024-02-15T05:37:24;3.10;99.90
17148;DHT22;8689;47.364;8.796;2024-02-15T05:46:56;3.10;99.90
17148;DHT22;8689;47.364;8.796;2024-02-15T05:49:37;3.10;99.90
17148;DHT22;8689;47.364;8.796;2024-02-15T05:52:05;3.00;99.90
17148;DHT22;8689;47.364;8.796;2024-02-15T05:54:42;3.00;99.90
17148;DHT22;8689;47.364;8.796;2024-02-15T05:57:35;3.00;99.90
17148;DHT22;8689;47.364;8.796;2024-02-15T06:00:03;3.00;99.90
17148;DHT22;8689;47.364;8.796;2024-02-15T06:03:00;2.90;99.90
17148;DHT22;8689;47.364;8.796;2024-02-15T06:05:29;2.90;99.90
17148;DHT22;8689;47.364;8.796;2024-02-15T06:08:03;2.80;99.90
17148;DHT22;8689;47.364;8.796;2024-02-15T06:10:34;2.90;99.90
17148;DHT22;8689;47.364;8.796;2024-02-15T06:13:08;2.90;99.90
17148;DHT22;8689;47.364;8.796;2024-02-15T06:15:59;3.00;99.90
17148;DHT22;8689;47.364;8.796;2024-02-15T06:21:52;3.00;99.90
17148;DHT22;8689;47.364;8.796;2024-02-15T06:24:50;3.00;99.90
17148;DHT22;8689;47.364;8.796;2024-02-15T06:27:18;3.00;99.90
17148;DHT22;8689;47.364;8.796;2024-02-15T06:29:47;2.90;99.90
17148;DHT22;8689;47.364;8.796;2024-02-15T06:33:21;2.90;99.90
17148;DHT22;8689;47.364;8.796;2024-02-15T06:39:00;3.10;99.90
17148;DHT22;8689;47.364;8.796;2024-02-15T06:39:23;3.10;99.90
17148;DHT22;8689;47.364;8.796;2024-02-15T06:45:56;3.30;99.90
17148;DHT22;8689;47.364;8.796;2024-02-15T06:48:12;3.30;99.90
17148;DHT22;8689;47.364;8.796;2024-02-15T06:50:55;3.20;99.90
17148;DHT22;8689;47.364;8.796;2024-02-15T06:53:40;3.20;99.90
17148;DHT22;8689;47.364;8.796;2024-02-15T06:56:35;3.20;99.90
17148;DHT22;8689;47.364;8.796;2024-02-15T11:09:56;16.00;71.10
17148;DHT22;8689;47.364;8.796;2024-02-15T11:12:41;16.40;70.00
17148;DHT22;8689;47.364;8.796;2024-02-15T11:15:09;16.70;69.00
17148;DHT22;8689;47.364;8.796;2024-02-15T11:28:40;16.90;68.00
17148;DHT22;8689;47.364;8.796;2024-02-15T11:31:08;16.90;68.30
17148;DHT22;8689;47.364;8.796;2024-02-15T11:33:38;17.00;67.90
17148;DHT22;8689;47.364;8.796;2024-02-15T11:36:06;17.20;67.00
17148;DHT22;8689;47.364;8.796;2024-02-15T11:38:37;17.30;66.90
17148;DHT22;8689;47.364;8.796;2024-02-15T11:43:55;17.90;65.70
17148;DHT22;8689;47.364;8.796;2024-02-15T11:46:45;18.10;64.20
17148;DHT22;8689;47.364;8.796;2024-02-15T11:53:28;18.50;63.10
17148;DHT22;8689;47.364;8.796;2024-02-15T11:58:44;18.60;63.70
17148;DHT22;8689;47.364;8.796;2024-02-15T12:12:34;20.00;58.90
17148;DHT22;8689;47.364;8.796;2024-02-15T12:15:23;19.90;59.40
17148;DHT22;8689;47.364;8.796;2024-02-15T12:19:02;20.00;58.10
17148;DHT22;8689;47.364;8.796;2024-02-15T12:28:30;20.60;55.30
17148;DHT22;8689;47.364;8.796;2024-02-15T13:23:39;19.60;57.20
17148;DHT22;8689;47.364;8.796;2024-02-15T13:26:36;19.30;57.80
17148;DHT22;8689;47.364;8.796;2024-02-15T14:46:29;14.90;70.50
17148;DHT22;8689;47.364;8.796;2024-02-15T14:48:56;14.70;70.70
17148;DHT22;8689;47.364;8.796;2024-02-15T15:39:06;12.90;85.20
17148;DHT22;8689;47.364;8.796;2024-02-15T16:06:44;12.00;92.30
17148;DHT22;8689;47.364;8.796;2024-02-15T16:30:43;11.20;97.50
17148;DHT22;8689;47.364;8.796;2024-02-15T16:33:10;11.10;98.50
17148;DHT22;8689;47.364;8.796;2024-02-15T16:35:50;11.00;99.90
17148;DHT22;8689;47.364;8.796;2024-02-15T16:45:32;10.70;99.90
17148;DHT22;8689;47.364;8.796;2024-02-15T16:48:58;10.50;99.90
17148;DHT22;8689;47.364;8.796;2024-02-15T16:51:32;10.40;99.90
17148;DHT22;8689;47.364;8.796;2024-02-15T16:54:33;10.30;99.90
17148;DHT22;8689;47.364;8.796;2024-02-15T16:57:19;10.20;99.90
17148;DHT22;8689;47.364;8.796;2024-02-15T16:59:47;10.10;99.90
17148;DHT22;8689;47.364;8.796;2024-02-15T17:02:21;10.00;99.90
17148;DHT22;8689;47.364;8.796;2024-02-15T17:04:50;10.00;99.90
17148;DHT22;8689;47.364;8.796;2024-02-15T17:07:21;9.90;99.90
17148;DHT22;8689;47.364;8.796;2024-02-15T17:10:20;9.80;99.90
17148;DHT22;8689;47.364;8.796;2024-02-15T17:13:03;9.80;99.90
17148;DHT22;8689;47.364;8.796;2024-02-15T17:15:33;9.70;99.90
17148;DHT22;8689;47.364;8.796;2024-02-15T17:18:02;9.80;99.90
17148;DHT22;8689;47.364;8.796;2024-02-15T17:20:50;9.70;99.90
17148;DHT22;8689;47.364;8.796;2024-02-15T17:23:20;9.70;99.90
17148;DHT22;8689;47.364;8.796;2024-02-15T17:25:50;9.70;99.90
17148;DHT22;8689;47.364;8.796;2024-02-15T17:28:24;9.70;99.90
17148;DHT22;8689;47.364;8.796;2024-02-15T17:31:06;9.70;99.90
17148;DHT22;8689;47.364;8.796;2024-02-15T17:33:50;9.70;99.90
17148;DHT22;8689;47.364;8.796;2024-02-15T17:36:37;9.60;99.90
17148;DHT22;8689;47.364;8.796;2024-02-15T17:39:06;9.50;99.90
17148;DHT22;8689;47.364;8.796;2024-02-15T17:41:35;9.50;99.90
17148;DHT22;8689;47.364;8.796;2024-02-15T17:44:07;9.40;99.90
17148;DHT22;8689;47.364;8.796;2024-02-15T17:46:35;9.30;99.90
17148;DHT22;8689;47.364;8.796;2024-02-15T17:49:04;9.20;99.90
17148;DHT22;8689;47.364;8.796;2024-02-15T17:52:05;9.20;99.90
17148;DHT22;8689;47.364;8.796;2024-02-15T17:54:35;9.10;99.90
17148;DHT22;8689;47.364;8.796;2024-02-15T17:57:19;9.00;99.90
17148;DHT22;8689;47.364;8.796;2024-02-15T18:00:05;9.00;99.90
17148;DHT22;8689;47.364;8.796;2024-02-15T18:03:07;8.90;99.90
17148;DHT22;8689;47.364;8.796;2024-02-15T18:05:56;9.00;99.90
17148;DHT22;8689;47.364;8.796;2024-02-15T18:11:47;8.80;99.90
17148;DHT22;8689;47.364;8.796;2024-02-15T18:14:25;8.80;99.90
17148;DHT22;8689;47.364;8.796;2024-02-15T18:17:11;8.70;99.90
17148;DHT22;8689;47.364;8.796;2024-02-15T18:19:59;8.70;99.90
17148;DHT22;8689;47.364;8.796;2024-02-15T18:22:40;8.50;99.90
17148;DHT22;8689;47.364;8.796;2024-02-15T18:25:09;8.50;99.90
17148;DHT22;8689;47.364;8.796;2024-02-15T18:27:54;8.50;99.90
17148;DHT22;8689;47.364;8.796;2024-02-15T18:30:55;8.50;99.90
17148;DHT22;8689;47.364;8.796;2024-02-15T18:33:35;8.50;99.90
17148;DHT22;8689;47.364;8.796;2024-02-15T18:36:12;8.50;99.90
17148;DHT22;8689;47.364;8.796;2024-02-15T18:38:49;8.40;99.90
17148;DHT22;8689;47.364;8.796;2024-02-15T18:41:17;8.40;99.90
17148;DHT22;8689;47.364;8.796;2024-02-15T18:44:03;8.40;99.90
17148;DHT22;8689;47.364;8.796;2024-02-15T18:46:37;8.40;99.90
17148;DHT22;8689;47.364;8.796;2024-02-15T18:49:05;8.30;99.90
17148;DHT22;8689;47.364;8.796;2024-02-15T18:51:36;8.30;99.90
17148;DHT22;8689;47.364;8.796;2024-02-15T18:54:14;8.40;99.90
17148;DHT22;8689;47.364;8.796;2024-02-15T18:57:28;8.40;99.90
17148;DHT22;8689;47.364;8.796;2024-02-15T19:00:16;8.40;99.90
17148;DHT22;8689;47.364;8.796;2024-02-15T19:02:46;8.40;99.90
17148;DHT22;8689;47.364;8.796;2024-02-15T19:05:13;8.40;99.90
17148;DHT22;8689;47.364;8.796;2024-02-15T19:07:43;8.30;99.90
17148;DHT22;8689;47.364;8.796;2024-02-15T19:10:12;8.30;99.90
17148;DHT22;8689;47.364;8.796;2024-02-15T19:23:32;8.40;99.90
17148;DHT22;8689;47.364;8.796;2024-02-15T19:26:26;8.30;99.90
17148;DHT22;8689;47.364;8.796;2024-02-15T19:32:08;8.20;99.90
17148;DHT22;8689;47.364;8.796;2024-02-15T19:38:52;8.10;99.90
17148;DHT22;8689;47.364;8.796;2024-02-15T19:41:19;8.00;99.90
17148;DHT22;8689;47.364;8.796;2024-02-15T19:43:49;8.00;99.90
17148;DHT22;8689;47.364;8.796;2024-02-15T19:49:48;7.90;99.90
17148;DHT22;8689;47.364;8.796;2024-02-15T19:52:16;7.80;99.90
17148;DHT22;8689;47.364;8.796;2024-02-15T19:58:58;7.70;99.90
17148;DHT22;8689;47.364;8.796;2024-02-15T20:02:14;7.70;99.90
17148;DHT22;8689;47.364;8.796;2024-02-15T20:05:13;7.70;99.90
17148;DHT22;8689;47.364;8.796;2024-02-15T20:07:41;7.60;99.90
17148;DHT22;8689;47.364;8.796;2024-02-15T20:17:20;7.50;99.90
17148;DHT22;8689;47.364;8.796;2024-02-15T20:19:48;7.50;99.90
17148;DHT22;8689;47.364;8.796;2024-02-15T20:22:15;7.50;99.90
17148;DHT22;8689;47.364;8.796;2024-02-15T20:24:44;7.50;99.90
17148;DHT22;8689;47.364;8.796;2024-02-15T20:27:11;7.50;99.90
17148;DHT22;8689;47.364;8.796;2024-02-15T20:29:38;7.50;99.90
17148;DHT22;8689;47.364;8.796;2024-02-15T20:32:06;7.50;99.90
17148;DHT22;8689;47.364;8.796;2024-02-15T20:34:35;7.50;99.90
17148;DHT22;8689;47.364;8.796;2024-02-15T20:37:02;7.50;99.90
17148;DHT22;8689;47.364;8.796;2024-02-15T20:39:29;7.50;99.90
17148;DHT22;8689;47.364;8.796;2024-02-15T20:42:26;7.50;99.90
17148;DHT22;8689;47.364;8.796;2024-02-15T20:45:18;7.60;99.90
17148;DHT22;8689;47.364;8.796;2024-02-15T20:47:46;7.60;99.90
17148;DHT22;8689;47.364;8.796;2024-02-15T20:50:30;7.60;99.90
17148;DHT22;8689;47.364;8.796;2024-02-15T20:52:57;7.60;99.90
17148;DHT22;8689;47.364;8.796;2024-02-15T20:55:25;7.60;99.90
17148;DHT22;8689;47.364;8.796;2024-02-15T20:58:13;7.50;99.90
17148;DHT22;8689;47.364;8.796;2024-02-15T21:00:56;7.50;99.90
17148;DHT22;8689;47.364;8.796;2024-02-15T21:03:23;7.50;99.90
17148;DHT22;8689;47.364;8.796;2024-02-15T21:05:52;7.40;99.90
17148;DHT22;8689;47.364;8.796;2024-02-15T21:08:21;7.40;99.90
17148;DHT22;8689;47.364;8.796;2024-02-15T21:11:04;7.40;99.90
17148;DHT22;8689;47.364;8.796;2024-02-15T21:13:31;7.40;99.90
17148;DHT22;8689;47.364;8.796;2024-02-15T21:15:58;7.40;99.90
17148;DHT22;8689;47.364;8.796;2024-02-15T21:18:26;7.40;99.90
17148;DHT22;8689;47.364;8.796;2024-02-15T21:20:57;7.40;99.90
17148;DHT22;8689;47.364;8.796;2024-02-15T21:23:31;7.40;99.90
17148;DHT22;8689;47.364;8.796;2024-02-15T21:26:06;7.40;99.90
17148;DHT22;8689;47.364;8.796;2024-02-15T21:28:38;7.30;99.90
17148;DHT22;8689;47.364;8.796;2024-02-15T21:31:10;7.30;99.90
17148;DHT22;8689;47.364;8.796;2024-02-15T21:33:42;7.30;99.90
17148;DHT22;8689;47.364;8.796;2024-02-15T21:36:12;7.30;99.90
17148;DHT22;8689;47.364;8.796;2024-02-15T21:38:42;7.30;99.90
17148;DHT22;8689;47.364;8.796;2024-02-15T21:41:10;7.30;99.90
17148;DHT22;8689;47.364;8.796;2024-02-15T21:43:38;7.30;99.90
17148;DHT22;8689;47.364;8.796;2024-02-15T21:46:12;7.30;99.90
17148;DHT22;8689;47.364;8.796;2024-02-15T21:48:42;7.20;99.90
17148;DHT22;8689;47.364;8.796;2024-02-15T21:51:12;7.10;99.90
17148;DHT22;8689;47.364;8.796;2024-02-15T21:53:39;7.10;99.90
17148;DHT22;8689;47.364;8.796;2024-02-15T21:56:07;7.20;99.90
17148;DHT22;8689;47.364;8.796;2024-02-15T21:58:35;7.20;99.90
17148;DHT22;8689;47.364;8.796;2024-02-15T22:01:02;7.20;99.90
17148;DHT22;8689;47.364;8.796;2024-02-15T22:03:29;7.10;99.90
17148;DHT22;8689;47.364;8.796;2024-02-15T22:05:57;7.10;99.90
17148;DHT22;8689;47.364;8.796;2024-02-15T22:08:26;7.20;99.90
17148;DHT22;8689;47.364;8.796;2024-02-15T22:10:53;7.20;99.90
17148;DHT22;8689;47.364;8.796;2024-02-15T22:13:20;7.20;99.90
17148;DHT22;8689;47.364;8.796;2024-02-15T22:15:48;7.20;99.90
17148;DHT22;8689;47.364;8.796;2024-02-15T22:18:15;7.20;99.90
17148;DHT22;8689;47.364;8.796;2024-02-15T22:20:42;7.20;99.90
17148;DHT22;8689;47.364;8.796;2024-02-15T22:23:12;7.10;99.90
17148;DHT22;8689;47.364;8.796;2024-02-15T22:25:41;7.00;99.90
17148;DHT22;8689;47.364;8.796;2024-02-15T22:28:08;6.80;99.90
17148;DHT22;8689;47.364;8.796;2024-02-15T22:30:59;6.80;99.90
17148;DHT22;8689;47.364;8.796;2024-02-15T22:33:27;6.60;99.90
17148;DHT22;8689;47.364;8.796;2024-02-15T22:35:54;6.60;99.90
17148;DHT22;8689;47.364;8.796;2024-02-15T22:38:22;6.60;99.90
17148;DHT22;8689;47.364;8.796;2024-02-15T22:40:50;6.70;99.90
17148;DHT22;8689;47.364;8.796;2024-02-15T22:43:18;6.80;99.90
17148;DHT22;8689;47.364;8.796;2024-02-15T22:45:46;6.80;99.90
17148;DHT22;8689;47.364;8.796;2024-02-15T22:48:13;7.00;99.90
17148;DHT22;8689;47.364;8.796;2024-02-15T22:50:41;7.00;99.90
17148;DHT22;8689;47.364;8.796;2024-02-15T22:53:08;7.10;99.90
17148;DHT22;8689;47.364;8.796;2024-02-15T22:55:36;7.10;99.90
17148;DHT22;8689;47.364;8.796;2024-02-15T22:58:05;7.20;99.90
17148;DHT22;8689;47.364;8.796;2024-02-15T23:00:34;7.30;99.90
17148;DHT22;8689;47.364;8.796;2024-02-15T23:03:02;7.30;99.90
17148;DHT22;8689;47.364;8.796;2024-02-15T23:05:29;7.30;99.90
17148;DHT22;8689;47.364;8.796;2024-02-15T23:07:58;7.40;99.90
17148;DHT22;8689;47.364;8.796;2024-02-15T23:10:25;7.50;99.90
17148;DHT22;8689;47.364;8.796;2024-02-15T23:12:52;7.60;99.90
17148;DHT22;8689;47.364;8.796;2024-02-15T23:15:21;7.60;99.90
17148;DHT22;8689;47.364;8.796;2024-02-15T23:17:48;7.60;99.90
17148;DHT22;8689;47.364;8.796;2024-02-15T23:20:16;7.70;99.90
17148;DHT22;8689;47.364;8.796;2024-02-15T23:22:44;7.70;99.90
17148;DHT22;8689;47.364;8.796;2024-02-15T23:25:11;7.70;99.90
17148;DHT22;8689;47.364;8.796;2024-02-15T23:27:39;7.80;99.90
17148;DHT22;8689;47.364;8.796;2024-02-15T23:30:07;7.80;99.90
17148;DHT22;8689;47.364;8.796;2024-02-15T23:32:37;7.90;99.90
17148;DHT22;8689;47.364;8.796;2024-02-15T23:35:06;8.00;99.90
17148;DHT22;8689;47.364;8.796;2024-02-15T23:37:36;8.00;99.90
17148;DHT22;8689;47.364;8.796;2024-02-15T23:40:21;7.90;99.90
17148;DHT22;8689;47.364;8.796;2024-02-15T23:42:51;7.80;99.90
17148;DHT22;8689;47.364;8.796;2024-02-15T23:45:19;7.80;99.90
17148;DHT22;8689;47.364;8.796;2024-02-15T23:47:48;7.90;99.90
17148;DHT22;8689;47.364;8.796;2024-02-15T23:50:15;7.90;99.90
17148;DHT22;8689;47.364;8.796;2024-02-15T23:52:44;7.90;99.90
17148;DHT22;8689;47.364;8.796;2024-02-15T23:55:14;8.00;99.90
17148;DHT22;8689;47.364;8.796;2024-02-15T23:57:43;8.00;99.90
